createdAt,value
2022-07-27T00:01:17.439Z,98704.70
2022-07-27T00:03:46.401Z,98701.77
2022-07-27T00:06:14.290Z,98708.54
2022-07-27T00:08:42.182Z,98707.05
2022-07-27T00:11:10.635Z,98704.05
2022-07-27T00:13:38.658Z,98702.83
2022-07-27T00:16:07.216Z,98700.58
2022-07-27T00:18:35.288Z,98700.58
2022-07-27T00:21:03.768Z,98699.63
2022-07-27T00:23:32.041Z,98701.01
2022-07-27T00:26:00.317Z,98704.55
2022-07-27T00:28:28.060Z,98707.66
2022-07-27T00:30:55.813Z,98706.75
2022-07-27T00:33:23.562Z,98708.72
2022-07-27T00:35:51.809Z,98707.52
2022-07-27T00:38:20.090Z,98708.29
2022-07-27T00:40:48.539Z,98708.64
2022-07-27T00:43:17.288Z,98707.15
2022-07-27T00:45:45.735Z,98711.80
2022-07-27T00:48:14.012Z,98708.95
2022-07-27T00:50:43.771Z,98704.08
2022-07-27T00:53:14.505Z,98711.11
2022-07-27T00:55:43.221Z,98707.75
2022-07-27T00:58:11.723Z,98708.23
2022-07-27T01:00:40.291Z,98707.02
2022-07-27T01:03:09.663Z,98708.05
2022-07-27T01:05:42.768Z,98709.52
2022-07-27T01:08:15.131Z,98706.82
2022-07-27T01:10:46.034Z,98707.90
2022-07-27T01:13:18.547Z,98706.08
2022-07-27T01:15:46.953Z,98706.84
2022-07-27T01:18:37.824Z,98707.73
2022-07-27T01:21:10.196Z,98707.44
2022-07-27T01:23:38.187Z,98704.02
2022-07-27T01:26:09.021Z,98703.77
2022-07-27T01:28:37.722Z,98705.80
2022-07-27T01:31:05.715Z,98701.77
2022-07-27T01:33:34.483Z,98695.78
2022-07-27T01:36:02.431Z,98698.95
2022-07-27T01:38:30.369Z,98694.90
2022-07-27T01:40:58.098Z,98696.07
2022-07-27T01:43:25.852Z,98696.36
2022-07-27T01:45:54.816Z,98692.77
2022-07-27T01:48:23.613Z,98693.88
2022-07-27T01:50:53.297Z,98692.63
2022-07-27T01:53:24.181Z,98686.05
2022-07-27T01:55:54.079Z,98689.07
2022-07-27T01:58:23.627Z,98683.72
2022-07-27T02:00:52.548Z,98691.62
2022-07-27T02:03:20.448Z,98689.80
2022-07-27T02:05:48.323Z,98690.66
2022-07-27T02:08:18.306Z,98691.91
2022-07-27T02:11:06.531Z,98689.25
2022-07-27T02:13:35.521Z,98692.27
2022-07-27T02:16:04.884Z,98693.92
2022-07-27T02:18:45.962Z,98692.85
2022-07-27T02:21:17.668Z,98689.93
2022-07-27T02:23:48.387Z,98691.91
2022-07-27T02:26:17.189Z,98690.11
2022-07-27T02:28:44.917Z,98691.58
2022-07-27T02:31:13.945Z,98686.67
2022-07-27T02:33:42.837Z,98688.46
2022-07-27T02:36:10.585Z,98686.64
2022-07-27T02:38:39.388Z,98690.63
2022-07-27T02:41:08.278Z,98693.05
2022-07-27T02:43:36.997Z,98691.77
2022-07-27T02:46:06.170Z,98689.36
2022-07-27T02:48:34.010Z,98693.48
2022-07-27T02:51:04.119Z,98693.28
2022-07-27T02:53:33.036Z,98694.08
2022-07-27T02:56:02.289Z,98698.13
2022-07-27T02:58:30.943Z,98701.23
2022-07-27T03:00:59.643Z,98703.19
2022-07-27T03:03:36.894Z,98705.03
2022-07-27T03:06:08.956Z,98707.78
2022-07-27T03:08:36.699Z,98709.75
2022-07-27T03:11:06.734Z,98710.73
2022-07-27T03:13:35.758Z,98707.27
2022-07-27T03:16:03.657Z,98710.00
2022-07-27T03:18:32.591Z,98714.80
2022-07-27T03:21:00.349Z,98714.84
2022-07-27T03:23:28.398Z,98715.20
2022-07-27T03:25:57.031Z,98718.19
2022-07-27T03:28:24.776Z,98718.58
2022-07-27T03:30:54.684Z,98720.79
2022-07-27T03:33:22.689Z,98719.19
2022-07-27T03:35:52.477Z,98722.77
2022-07-27T03:38:20.271Z,98724.06
2022-07-27T03:40:49.039Z,98727.41
2022-07-27T03:43:17.904Z,98736.39
2022-07-27T03:45:46.007Z,98737.95
2022-07-27T03:48:15.016Z,98735.39
2022-07-27T03:50:42.813Z,98733.23
2022-07-27T03:53:11.549Z,98728.80
2022-07-27T03:55:40.614Z,98726.23
2022-07-27T03:58:08.916Z,98729.00
2022-07-27T04:00:37.677Z,98730.41
2022-07-27T04:03:06.716Z,98730.58
2022-07-27T04:05:34.603Z,98735.52
2022-07-27T04:08:03.016Z,98737.73
2022-07-27T04:10:31.706Z,98738.64
2022-07-27T04:13:01.053Z,98736.30
2022-07-27T04:15:31.054Z,98735.27
2022-07-27T04:17:59.939Z,98735.23
2022-07-27T04:20:27.889Z,98735.48
2022-07-27T04:22:56.993Z,98736.52
2022-07-27T04:25:25.342Z,98742.85
2022-07-27T04:27:54.808Z,98744.64
2022-07-27T04:30:23.987Z,98747.46
2022-07-27T04:32:52.773Z,98752.66
2022-07-27T04:35:26.260Z,98755.00
2022-07-27T04:37:58.474Z,98757.36
2022-07-27T04:40:36.625Z,98756.27
2022-07-27T04:43:07.675Z,98755.77
2022-07-27T04:45:37.197Z,98761.70
2022-07-27T04:48:11.063Z,98761.80
2022-07-27T04:50:41.776Z,98762.30
2022-07-27T04:53:11.801Z,98762.64
2022-07-27T04:55:48.032Z,98766.96
2022-07-27T04:58:16.967Z,98769.66
2022-07-27T05:00:46.189Z,98769.70
2022-07-27T05:03:14.598Z,98769.65
2022-07-27T05:05:50.129Z,98770.77
2022-07-27T05:08:19.526Z,98770.07
2022-07-27T05:10:48.904Z,98770.08
2022-07-27T05:13:17.787Z,98766.79
2022-07-27T05:15:54.725Z,98769.80
2022-07-27T05:18:25.969Z,98769.84
2022-07-27T05:20:54.900Z,98775.30
2022-07-27T05:23:23.694Z,98774.56
2022-07-27T05:25:53.500Z,98779.81
2022-07-27T05:28:22.389Z,98784.83
2022-07-27T05:30:50.363Z,98786.54
2022-07-27T05:33:18.361Z,98778.34
2022-07-27T05:35:47.149Z,98774.45
2022-07-27T05:38:15.830Z,98778.62
2022-07-27T05:40:47.236Z,98785.34
2022-07-27T05:43:16.325Z,98787.00
2022-07-27T05:45:44.432Z,98784.86
2022-07-27T05:48:14.998Z,98788.27
2022-07-27T05:50:42.729Z,98789.48
2022-07-27T05:53:10.633Z,98794.92
2022-07-27T05:55:39.432Z,98798.23
2022-07-27T05:58:32.212Z,98801.75
2022-07-27T06:01:01.733Z,98807.23
2022-07-27T06:03:32.603Z,98811.52
2022-07-27T06:06:20.595Z,98810.14
2022-07-27T06:08:48.325Z,98818.88
2022-07-27T06:11:16.120Z,98817.56
2022-07-27T06:13:44.838Z,98815.98
2022-07-27T06:16:13.947Z,98815.57
2022-07-27T06:18:43.332Z,98812.79
2022-07-27T06:21:12.023Z,98812.86
2022-07-27T06:23:41.057Z,98810.17
2022-07-27T06:26:10.726Z,98808.83
2022-07-27T06:28:39.479Z,98807.35
2022-07-27T06:31:08.343Z,98810.44
2022-07-27T06:33:38.076Z,98811.66
2022-07-27T06:36:08.511Z,98818.63
2022-07-27T06:38:37.405Z,98817.33
2022-07-27T06:41:05.308Z,98812.23
2022-07-27T06:43:33.334Z,98816.20
2022-07-27T06:46:01.115Z,98814.98
2022-07-27T06:48:31.243Z,98819.95
2022-07-27T06:51:01.434Z,98824.04
2022-07-27T06:53:29.968Z,98820.61
2022-07-27T06:56:10.459Z,98826.50
2022-07-27T06:58:39.202Z,98827.37
2022-07-27T07:01:09.610Z,98823.19
2022-07-27T07:03:40.415Z,98831.96
2022-07-27T07:06:09.049Z,98829.46
2022-07-27T07:08:36.869Z,98830.33
2022-07-27T07:11:06.075Z,98833.31
2022-07-27T07:13:38.459Z,98836.98
2022-07-27T07:16:08.133Z,98834.29
2022-07-27T07:18:36.552Z,98834.27
2022-07-27T07:21:05.345Z,98829.22
2022-07-27T07:23:33.079Z,98837.04
2022-07-27T07:26:01.871Z,98837.69
2022-07-27T07:28:29.652Z,98839.70
2022-07-27T07:30:59.589Z,98842.09
2022-07-27T07:33:29.670Z,98843.25
2022-07-27T07:36:12.253Z,98844.23
2022-07-27T07:38:44.282Z,98842.68
2022-07-27T07:41:13.760Z,98842.36
2022-07-27T07:43:44.581Z,98842.94
2022-07-27T07:46:16.178Z,98843.38
2022-07-27T07:48:45.475Z,98844.61
2022-07-27T07:51:14.940Z,98847.59
2022-07-27T07:53:43.831Z,98847.27
2022-07-27T07:56:12.720Z,98845.52
2022-07-27T07:58:42.463Z,98848.36
2022-07-27T08:01:13.349Z,98854.09
2022-07-27T08:03:45.015Z,98862.43
2022-07-27T08:06:15.138Z,98866.84
2022-07-27T08:08:44.545Z,98872.80
2022-07-27T08:11:13.436Z,98876.98
2022-07-27T08:13:42.188Z,98883.11
2022-07-27T08:16:09.949Z,98888.32
2022-07-27T08:18:39.742Z,98892.86
2022-07-27T08:21:08.968Z,98896.95
2022-07-27T08:23:38.185Z,98900.34
2022-07-27T08:26:08.261Z,98904.30
2022-07-27T08:28:37.406Z,98909.27
2022-07-27T08:31:14.433Z,98908.21
2022-07-27T08:33:44.270Z,98909.86
2022-07-27T08:36:14.036Z,98907.81
2022-07-27T08:38:42.839Z,98911.02
2022-07-27T08:41:13.899Z,98914.48
2022-07-27T08:43:45.886Z,98917.98
2022-07-27T08:46:17.523Z,98920.23
2022-07-27T08:48:47.443Z,98921.34
2022-07-27T08:51:16.639Z,98925.21
2022-07-27T08:53:53.315Z,98926.38
2022-07-27T08:56:25.134Z,98928.30
2022-07-27T08:58:54.950Z,98927.26
2022-07-27T09:01:22.797Z,98928.77
2022-07-27T09:03:52.776Z,98928.74
2022-07-27T09:06:53.344Z,98929.16
2022-07-27T09:09:24.268Z,98934.14
2022-07-27T09:12:10.816Z,98936.23
2022-07-27T09:14:42.517Z,98934.01
2022-07-27T09:20:21.039Z,98933.71
2022-07-27T09:22:57.186Z,98932.26
2022-07-27T09:26:01.726Z,98936.08
2022-07-27T09:28:31.157Z,98936.70
2022-07-27T09:31:08.605Z,98938.08
2022-07-27T09:33:45.131Z,98928.19
2022-07-27T09:36:14.939Z,98927.98
2022-07-27T09:38:56.247Z,98923.52
2022-07-27T09:41:27.749Z,98922.81
2022-07-27T09:46:49.774Z,98914.60
2022-07-27T09:49:32.125Z,98916.20
2022-07-27T09:52:03.552Z,98907.08
2022-07-27T09:54:48.197Z,98899.09
2022-07-27T09:57:17.108Z,98904.07
2022-07-27T09:59:47.733Z,98907.56
2022-07-27T10:02:16.919Z,98905.55
2022-07-27T10:04:46.874Z,98905.37
2022-07-27T10:07:20.161Z,98903.33
2022-07-27T10:09:49.208Z,98900.41
2022-07-27T10:12:16.950Z,98903.19
2022-07-27T10:14:47.935Z,98907.53
2022-07-27T10:17:16.426Z,98903.14
2022-07-27T10:19:48.120Z,98903.09
2022-07-27T10:22:18.908Z,98902.12
2022-07-27T10:24:58.757Z,98898.65
2022-07-27T10:27:30.614Z,98897.52
2022-07-27T10:30:01.249Z,98895.98
2022-07-27T10:32:34.318Z,98889.58
2022-07-27T10:35:04.792Z,98888.61
2022-07-27T10:37:35.265Z,98892.08
2022-07-27T10:40:28.418Z,98887.80
2022-07-27T10:43:20.617Z,98883.16
2022-07-27T10:46:01.783Z,98885.29
2022-07-27T10:48:45.897Z,98888.48
2022-07-27T10:51:35.393Z,98890.55
2022-07-27T10:54:22.306Z,98890.80
2022-07-27T10:56:54.324Z,98885.40
2022-07-27T11:00:06.984Z,98880.41
2022-07-27T11:02:42.945Z,98881.70
2022-07-27T11:05:42.649Z,98879.14
2022-07-27T11:08:35.744Z,98878.14
2022-07-27T11:10:51.433Z,98876.13
2022-07-27T11:13:23.202Z,98872.16
2022-07-27T11:16:24.785Z,98874.66
2022-07-27T11:19:07.611Z,98878.07
2022-07-27T11:21:38.654Z,98871.67
2022-07-27T11:24:22.291Z,98880.64
2022-07-27T11:26:53.053Z,98875.06
2022-07-27T11:29:24.615Z,98872.14
2022-07-27T11:31:58.970Z,98866.61
2022-07-27T11:34:34.165Z,98862.71
2022-07-27T11:37:14.074Z,98864.77
2022-07-27T11:39:59.944Z,98863.44
2022-07-27T11:42:40.639Z,98863.40
2022-07-27T11:45:10.991Z,98862.64
2022-07-27T11:47:40.568Z,98865.36
2022-07-27T11:50:12.111Z,98859.20
2022-07-27T11:52:40.340Z,98862.16
2022-07-27T11:55:10.143Z,98858.77
2022-07-27T11:57:43.227Z,98863.15
2022-07-27T12:00:13.112Z,98855.92
2022-07-27T12:02:52.542Z,98856.55
2022-07-27T12:05:22.381Z,98859.23
2022-07-27T12:07:50.465Z,98852.92
2022-07-27T12:10:18.810Z,98851.07
2022-07-27T12:12:50.609Z,98850.21
2022-07-27T12:15:44.414Z,98849.12
2022-07-27T12:18:09.904Z,98847.36
2022-07-27T12:20:39.762Z,98845.95
2022-07-27T12:23:10.217Z,98845.61
2022-07-27T12:25:41.537Z,98848.95
2022-07-27T12:28:15.258Z,98850.20
2022-07-27T12:30:48.354Z,98848.09
2022-07-27T12:33:38.312Z,98850.59
2022-07-27T12:36:09.865Z,98846.45
2022-07-27T12:38:52.611Z,98843.96
2022-07-27T12:41:27.623Z,98844.83
2022-07-27T12:44:17.115Z,98852.61
2022-07-27T12:46:56.303Z,98859.13
2022-07-27T12:49:26.725Z,98853.02
2022-07-27T12:52:07.323Z,98852.49
2022-07-27T12:54:37.235Z,98851.92
2022-07-27T12:57:06.966Z,98851.52
2022-07-27T12:59:36.642Z,98857.52
2022-07-27T13:02:04.476Z,98855.75
2022-07-27T13:04:36.097Z,98849.27
2022-07-27T13:07:04.181Z,98850.00
2022-07-27T13:10:03.027Z,98846.10
2022-07-27T13:12:28.740Z,98847.41
2022-07-27T13:14:56.540Z,98845.66
2022-07-27T13:17:26.544Z,98851.50
2022-07-27T13:19:54.965Z,98850.58
2022-07-27T13:22:23.033Z,98847.94
2022-07-27T13:24:50.993Z,98850.52
2022-07-27T13:27:18.931Z,98852.67
2022-07-27T13:29:46.852Z,98851.91
2022-07-27T13:32:14.638Z,98854.49
2022-07-27T13:34:47.676Z,98852.66
2022-07-27T13:37:16.203Z,98854.33
2022-07-27T13:39:45.097Z,98852.66
2022-07-27T13:42:15.489Z,98849.24
2022-07-27T13:45:02.501Z,98847.03
2022-07-27T13:47:31.936Z,98842.81
2022-07-27T13:49:59.743Z,98841.81
2022-07-27T13:52:29.998Z,98839.06
2022-07-27T13:54:59.964Z,98832.21
2022-07-27T13:57:29.703Z,98837.52
2022-07-27T14:00:02.028Z,98836.89
2022-07-27T14:02:30.150Z,98841.40
2022-07-27T14:05:02.547Z,98844.73
2022-07-27T14:07:35.555Z,98841.40
2022-07-27T14:10:26.566Z,98833.13
2022-07-27T14:13:00.370Z,98837.82
2022-07-27T14:15:50.842Z,98836.74
2022-07-27T14:18:29.635Z,98833.91
2022-07-27T14:21:02.312Z,98837.79
2022-07-27T14:23:33.328Z,98841.59
2022-07-27T14:26:05.395Z,98843.17
2022-07-27T14:28:36.450Z,98844.92
2022-07-27T14:31:10.414Z,98841.08
2022-07-27T14:33:40.959Z,98838.71
2022-07-27T14:36:10.949Z,98832.27
2022-07-27T14:38:41.289Z,98829.19
2022-07-27T14:41:09.267Z,98828.83
2022-07-27T14:43:37.783Z,98831.20
2022-07-27T14:46:06.134Z,98827.98
2022-07-27T14:49:04.480Z,98824.73
2022-07-27T14:51:29.398Z,98828.31
2022-07-27T14:53:58.200Z,98830.34
2022-07-27T14:56:27.585Z,98832.85
2022-07-27T14:58:55.729Z,98824.84
2022-07-27T15:01:24.390Z,98823.80
2022-07-27T15:03:52.515Z,98819.92
2022-07-27T15:06:20.386Z,98813.60
2022-07-27T15:08:48.579Z,98810.30
2022-07-27T15:11:16.915Z,98813.36
2022-07-27T15:13:45.107Z,98813.11
2022-07-27T15:16:15.758Z,98811.57
2022-07-27T15:18:45.714Z,98811.58
2022-07-27T15:21:14.269Z,98814.84
2022-07-27T15:23:43.962Z,98814.09
2022-07-27T15:26:13.344Z,98811.55
2022-07-27T15:28:42.602Z,98810.05
2022-07-27T15:31:11.476Z,98810.00
2022-07-27T15:33:39.454Z,98807.13
2022-07-27T15:36:08.091Z,98804.99
2022-07-27T15:38:37.014Z,98801.70
2022-07-27T15:41:05.706Z,98802.27
2022-07-27T15:43:34.964Z,98800.95
2022-07-27T15:46:03.911Z,98796.32
2022-07-27T15:48:32.250Z,98795.73
2022-07-27T15:51:05.240Z,98787.95
2022-07-27T15:53:36.460Z,98784.97
2022-07-27T15:56:04.570Z,98783.47
2022-07-27T15:58:32.990Z,98781.66
2022-07-27T16:01:01.140Z,98783.09
2022-07-27T16:03:28.993Z,98781.04
2022-07-27T16:05:58.774Z,98778.60
2022-07-27T16:08:27.932Z,98776.98
2022-07-27T16:10:56.068Z,98772.55
2022-07-27T16:13:25.943Z,98773.27
2022-07-27T16:16:12.402Z,98773.13
2022-07-27T16:18:41.141Z,98775.83
2022-07-27T16:21:08.909Z,98774.10
2022-07-27T16:23:37.362Z,98775.27
2022-07-27T16:26:06.834Z,98775.34
2022-07-27T16:28:40.881Z,98772.60
2022-07-27T16:31:14.295Z,98775.32
2022-07-27T16:33:44.610Z,98778.78
2022-07-27T16:36:13.824Z,98776.19
2022-07-27T16:38:50.205Z,98772.55
2022-07-27T16:41:20.924Z,98776.14
2022-07-27T16:43:50.314Z,98780.66
2022-07-27T16:46:18.523Z,98779.20
2022-07-27T16:48:47.235Z,98781.59
2022-07-27T16:51:16.115Z,98784.76
2022-07-27T16:53:48.211Z,98783.50
2022-07-27T16:56:17.221Z,98785.43
2022-07-27T16:58:45.947Z,98788.31
2022-07-27T17:01:26.250Z,98787.02
2022-07-27T17:03:57.315Z,98785.77
2022-07-27T17:06:26.825Z,98786.80
2022-07-27T17:08:55.922Z,98787.81
2022-07-27T17:11:24.859Z,98788.31
2022-07-27T17:13:58.919Z,98787.73
2022-07-27T17:16:29.313Z,98787.86
2022-07-27T17:18:58.329Z,98786.89
2022-07-27T17:21:26.170Z,98784.21
2022-07-27T17:23:55.113Z,98788.77
2022-07-27T17:26:25.161Z,98787.52
2022-07-27T17:28:54.302Z,98786.13
2022-07-27T17:31:23.362Z,98782.33
2022-07-27T17:33:52.182Z,98780.79
2022-07-27T17:36:21.477Z,98784.95
2022-07-27T17:38:51.499Z,98788.98
2022-07-27T17:41:24.885Z,98792.88
2022-07-27T17:43:54.859Z,98796.16
2022-07-27T17:46:25.193Z,98798.48
2022-07-27T17:48:54.447Z,98802.88
2022-07-27T17:51:25.643Z,98803.16
2022-07-27T17:53:54.340Z,98803.38
2022-07-27T17:56:22.679Z,98808.49
2022-07-27T17:58:51.933Z,98808.42
2022-07-27T18:01:47.224Z,98810.20
2022-07-27T18:04:09.368Z,98811.08
2022-07-27T18:06:38.476Z,98814.11
2022-07-27T18:09:07.880Z,98816.97
2022-07-27T18:11:37.004Z,98817.11
2022-07-27T18:14:06.095Z,98821.19
2022-07-27T18:16:40.681Z,98821.14
2022-07-27T18:19:10.717Z,98824.69
2022-07-27T18:21:39.634Z,98823.41
2022-07-27T18:24:10.384Z,98820.42
2022-07-27T18:26:39.935Z,98821.89
2022-07-27T18:29:09.400Z,98824.27
2022-07-27T18:31:37.478Z,98827.41
2022-07-27T18:34:12.442Z,98826.85
2022-07-27T18:36:43.587Z,98828.15
2022-07-27T18:39:11.873Z,98830.36
2022-07-27T18:41:41.247Z,98833.92
2022-07-27T18:44:09.309Z,98839.04
2022-07-27T18:46:37.107Z,98841.33
2022-07-27T18:49:05.889Z,98843.71
2022-07-27T18:51:35.869Z,98849.71
2022-07-27T18:54:07.231Z,98856.77
2022-07-27T18:56:35.731Z,98863.72
2022-07-27T18:59:04.162Z,98866.03
2022-07-27T19:01:35.636Z,98867.11
2022-07-27T19:04:04.282Z,98867.57
2022-07-27T19:06:35.217Z,98871.91
2022-07-27T19:09:04.676Z,98873.04
2022-07-27T19:11:33.682Z,98873.80
2022-07-27T19:14:02.434Z,98884.17
2022-07-27T19:16:31.280Z,98890.41
2022-07-27T19:18:59.349Z,98890.27
2022-07-27T19:21:27.140Z,98887.55
2022-07-27T19:23:56.734Z,98890.78
2022-07-27T19:26:26.643Z,98893.75
2022-07-27T19:28:54.618Z,98892.27
2022-07-27T19:31:23.915Z,98896.23
2022-07-27T19:33:54.033Z,98899.29
2022-07-27T19:36:23.308Z,98896.59
2022-07-27T19:38:52.209Z,98898.96
2022-07-27T19:41:20.989Z,98905.37
2022-07-27T19:43:50.309Z,98907.27
2022-07-27T19:46:18.066Z,98905.41
2022-07-27T19:48:46.698Z,98907.88
2022-07-27T19:51:16.235Z,98911.48
2022-07-27T19:53:45.247Z,98913.58
2022-07-27T19:56:14.513Z,98913.79
2022-07-27T19:58:44.474Z,98911.52
2022-07-27T20:01:15.432Z,98908.39
2022-07-27T20:03:52.228Z,98903.48
2022-07-27T20:06:24.465Z,98906.47
2022-07-27T20:09:00.105Z,98916.35
2022-07-27T20:11:31.839Z,98915.48
2022-07-27T20:14:03.171Z,98915.09
2022-07-27T20:16:34.291Z,98916.46
2022-07-27T20:19:03.307Z,98919.23
2022-07-27T20:21:34.613Z,98923.80
2022-07-27T20:24:04.215Z,98930.11
2022-07-27T20:26:32.000Z,98930.39
2022-07-27T20:29:01.296Z,98932.83
2022-07-27T20:31:29.371Z,98932.17
2022-07-27T20:33:57.322Z,98934.14
2022-07-27T20:36:25.374Z,98937.02
2022-07-27T20:38:54.649Z,98934.80
2022-07-27T20:41:22.427Z,98935.58
2022-07-27T20:43:51.516Z,98943.00
2022-07-27T20:46:22.000Z,98946.14
2022-07-27T20:48:52.227Z,98949.77
2022-07-27T20:51:21.134Z,98958.14
2022-07-27T20:53:51.355Z,98965.18
2022-07-27T20:56:19.855Z,98967.00
2022-07-27T20:58:50.471Z,98974.09
2022-07-27T21:01:19.242Z,98971.10
2022-07-27T21:03:47.898Z,98969.98
2022-07-27T21:06:16.349Z,98977.60
2022-07-27T21:08:46.692Z,98980.23
2022-07-27T21:11:15.854Z,98985.21
2022-07-27T21:13:44.044Z,98988.98
2022-07-27T21:16:12.903Z,98988.45
2022-07-27T21:18:41.034Z,98984.95
2022-07-27T21:21:11.122Z,98981.95
2022-07-27T21:23:57.744Z,98982.83
2022-07-27T21:26:26.340Z,98986.16
2022-07-27T21:28:54.359Z,98979.59
2022-07-27T21:31:22.132Z,98980.33
2022-07-27T21:33:51.609Z,98981.60
2022-07-27T21:36:21.363Z,98980.80
2022-07-27T21:38:51.968Z,98979.21
2022-07-27T21:41:21.056Z,98980.25
2022-07-27T21:43:49.940Z,98982.10
2022-07-27T21:46:19.131Z,98981.17
2022-07-27T21:48:49.757Z,98977.10
2022-07-27T21:51:19.208Z,98975.59
2022-07-27T21:53:49.836Z,98978.55
2022-07-27T21:56:20.176Z,98983.66
2022-07-27T21:58:49.174Z,98986.05
2022-07-27T22:01:17.167Z,98985.95
2022-07-27T22:03:48.757Z,98989.23
2022-07-27T22:06:19.078Z,98991.13
2022-07-27T22:08:48.814Z,98994.66
2022-07-27T22:11:16.602Z,98988.52
2022-07-27T22:13:44.675Z,98985.44
2022-07-27T22:16:15.602Z,98982.50
2022-07-27T22:18:43.879Z,98978.96
2022-07-27T22:21:11.821Z,98972.61
2022-07-27T22:23:39.541Z,98973.07
2022-07-27T22:26:09.193Z,98972.64
2022-07-27T22:28:41.615Z,98972.64
2022-07-27T22:31:22.020Z,98980.58
2022-07-27T22:33:53.587Z,98982.93
2022-07-27T22:36:21.418Z,98984.31
2022-07-27T22:38:51.325Z,98988.28
2022-07-27T22:41:21.313Z,98989.95
2022-07-27T22:43:50.342Z,98991.86
2022-07-27T22:46:23.647Z,98993.23
2022-07-27T22:48:55.977Z,98992.45
2022-07-27T22:51:24.294Z,98998.73
2022-07-27T22:53:52.035Z,98999.41
2022-07-27T22:56:20.253Z,98996.65
2022-07-27T22:58:48.227Z,99002.20
2022-07-27T23:01:46.410Z,99007.94
2022-07-27T23:04:07.862Z,99010.95
2022-07-27T23:06:37.551Z,99009.23
2022-07-27T23:09:05.367Z,99010.52
2022-07-27T23:11:34.687Z,99012.92
2022-07-27T23:14:03.984Z,99015.81
2022-07-27T23:16:31.766Z,99010.36
2022-07-27T23:19:03.005Z,99011.19
2022-07-27T23:21:30.719Z,99010.36
2022-07-27T23:23:58.724Z,99006.85
2022-07-27T23:26:29.303Z,99004.50
2022-07-27T23:28:59.972Z,99002.17
2022-07-27T23:31:30.801Z,98998.73
2022-07-27T23:34:00.819Z,98997.92
2022-07-27T23:36:29.259Z,99000.20
2022-07-27T23:38:57.243Z,98997.41
2022-07-27T23:41:27.071Z,98996.84
2022-07-27T23:43:55.046Z,98997.71
2022-07-27T23:46:23.120Z,98995.48
2022-07-27T23:48:55.439Z,98996.36
2022-07-27T23:51:25.921Z,98997.55
2022-07-27T23:53:53.779Z,99000.14
2022-07-27T23:56:23.949Z,99000.38
2022-07-27T23:58:54.423Z,99000.33
